Decoded Metar for KDUJ (DU BOIS in PA, USA) (IATA:DUJ) | Meteo·Mobile Aviation Weather
aviador You're here:

KDUJ Decoded Metar

DU BOIS in PA, USA
Report Time2018-09-23 10:53:00
UTC Time2018-09-23 11:53:56
Flight Rules vfr VFR
Wind080° at 05 kt
W.Decomp.*RWY 07: 4.7 kt HW 1.7 kt RCW
W.Rank080° ranks 19
Current wind is below 080° avg. (5.2)
Visibility9999 m
Phenomena:N/A
Clouds:N/A
Expected CloudBase > 400 ft AGL from Temp-Dew spread
CeilingNone
Temp08°C (ISA -3)
Dew Point07°C (93% RH)
AAT5.5°C
QNH1022 hPa
Density Alt1,250 ft
Elevation1,818 ft
Report Wrong Elevation
Raw Report
KDUJ 231053Z AUTO 08005KT 10SM CLR 08/07 A3019 RMK AO2 SLP226
T00780067=

Extra information for KDUJ:More info

Metar Taf Metar & Taf Last 4 Metars F.Rules Stats Wind Profile Meteogram Temp Stats Airport Information Weather charts Add Link Nearby VenuesMetar ALERT Operation Metar Decoded Social comments

AIRNAV info for KDUJ